Time;durP1;ratioP1;P1;durP2;ratioP2;P2;SDS_P1;SDS_P2;PMS_P1;PMS_P2;Temp;Humidity;BMP_temperature;BMP_pressure;BME280_temperature;BME280_humidity;BME280_pressure;Samples;Min_cycle;Max_cycle;Signal;HPM_P1;HPM_P2
2022/01/14 00:01:46;;;;;;;14.38;9.98;;;4.10;99.90;;;;;;5022063;28;20174;-77
2022/01/14 00:04:12;;;;;;;17.55;13.20;;;4.10;99.90;;;;;;5024059;28;20185;-77
2022/01/14 00:06:38;;;;;;;18.13;12.43;;;4.10;99.90;;;;;;5024073;28;20178;-77
2022/01/14 00:09:07;;;;;;;18.48;13.85;;;4.10;99.90;;;;;;5019610;28;20206;-77
2022/01/14 00:11:39;;;;;;;19.35;13.40;;;4.00;99.90;;;;;;5020004;28;20174;-77
2022/01/14 00:16:32;;;;;;;21.95;14.57;;;4.00;99.90;;;;;;5020567;28;20193;-77
2022/01/14 00:18:58;;;;;;;20.55;12.88;;;4.00;99.90;;;;;;5022706;28;20246;-77
2022/01/14 00:21:25;;;;;;;18.05;12.45;;;3.90;99.90;;;;;;5023657;28;20357;-77
2022/01/14 00:23:53;;;;;;;20.58;13.60;;;3.90;99.90;;;;;;5022679;28;20189;-77
2022/01/14 00:31:55;;;;;;;18.80;12.98;;;3.80;99.90;;;;;;5021234;28;20308;-77
2022/01/14 00:34:20;;;;;;;18.80;14.90;;;3.80;99.90;;;;;;4996812;28;20194;-77
2022/01/14 00:36:46;;;;;;;19.73;13.83;;;3.80;99.90;;;;;;5020856;28;20170;-78
2022/01/14 00:39:14;;;;;;;20.33;14.43;;;3.70;99.90;;;;;;5020419;28;20696;-77
2022/01/14 00:41:42;;;;;;;23.83;15.10;;;3.70;99.90;;;;;;5027729;28;20581;-77
2022/01/14 00:44:13;;;;;;;19.73;14.48;;;3.70;99.90;;;;;;5020345;28;20213;-78
2022/01/14 00:46:41;;;;;;;20.13;15.23;;;3.70;99.90;;;;;;5015633;28;20261;-77
2022/01/14 00:49:08;;;;;;;18.75;12.73;;;3.70;99.90;;;;;;5035713;28;20212;-77
2022/01/14 00:51:35;;;;;;;23.05;13.55;;;3.70;99.90;;;;;;5023252;28;20214;-78
2022/01/14 00:54:02;;;;;;;20.75;13.48;;;3.70;99.90;;;;;;5022962;28;20237;-77
2022/01/14 00:56:34;;;;;;;21.77;14.32;;;3.70;99.90;;;;;;5023442;28;20268;-77
2022/01/14 00:59:15;;;;;;;15.77;11.02;;;3.70;99.90;;;;;;5030319;28;20197;-77
2022/01/14 01:01:49;;;;;;;15.35;11.23;;;3.70;99.90;;;;;;5031583;28;20305;-77
2022/01/14 01:04:27;;;;;;;17.17;13.48;;;3.70;99.90;;;;;;5030623;28;20193;-77
2022/01/14 01:06:53;;;;;;;13.85;10.02;;;3.70;99.90;;;;;;5029950;28;20198;-77
2022/01/14 01:09:22;;;;;;;12.83;9.20;;;3.80;99.90;;;;;;5032855;28;20558;-77
2022/01/14 01:11:53;;;;;;;13.35;11.65;;;3.80;99.90;;;;;;5030789;28;20580;-78
2022/01/14 01:14:26;;;;;;;18.48;11.80;;;3.80;99.90;;;;;;5017503;28;20190;-77
2022/01/14 01:16:52;;;;;;;18.42;10.68;;;3.80;99.90;;;;;;5012795;28;20173;-78
2022/01/14 01:19:18;;;;;;;21.70;13.93;;;3.90;99.90;;;;;;5013087;28;20190;-78
2022/01/14 01:21:43;;;;;;;17.07;12.63;;;3.90;99.90;;;;;;5029282;28;20630;-77
2022/01/14 01:24:11;;;;;;;19.60;12.73;;;3.80;99.90;;;;;;5032934;28;20538;-77
2022/01/14 01:26:40;;;;;;;16.60;10.73;;;3.80;99.90;;;;;;5031547;28;20177;-77
2022/01/14 01:31:40;;;;;;;20.20;12.63;;;3.80;99.90;;;;;;5022945;28;20652;-77
2022/01/14 01:34:10;;;;;;;14.18;9.73;;;3.80;99.90;;;;;;5011146;28;20213;-76
2022/01/14 01:36:37;;;;;;;16.98;12.38;;;3.70;99.90;;;;;;5030684;28;20175;-76
2022/01/14 01:39:05;;;;;;;12.80;10.75;;;3.80;99.90;;;;;;5019344;28;20264;-76
2022/01/14 01:41:33;;;;;;;16.40;11.88;;;3.80;99.90;;;;;;5018698;28;20265;-76
2022/01/14 01:44:00;;;;;;;14.25;10.40;;;3.70;99.90;;;;;;5033689;28;20178;-75
2022/01/14 01:46:26;;;;;;;13.65;10.07;;;3.70;99.90;;;;;;5018002;28;20256;-76
2022/01/14 01:48:53;;;;;;;15.20;9.80;;;3.70;99.90;;;;;;4999795;28;20789;-76
2022/01/14 01:51:20;;;;;;;15.35;10.82;;;3.70;99.90;;;;;;5019018;28;20182;-76
2022/01/14 01:53:47;;;;;;;14.05;9.43;;;3.70;99.90;;;;;;5018158;28;20198;-76
2022/01/14 01:56:14;;;;;;;14.60;9.90;;;3.70;99.90;;;;;;5023033;28;20203;-76
2022/01/14 01:58:39;;;;;;;14.23;11.18;;;3.70;99.90;;;;;;5026506;28;20212;-76
2022/01/14 02:01:06;;;;;;;16.00;11.27;;;3.70;99.90;;;;;;5021716;28;20179;-76
2022/01/14 02:03:34;;;;;;;15.52;9.73;;;3.70;99.90;;;;;;5022862;28;20617;-76
2022/01/14 02:06:01;;;;;;;19.95;13.38;;;3.70;99.90;;;;;;5037554;28;20603;-76
2022/01/14 02:08:27;;;;;;;17.92;11.15;;;3.70;99.90;;;;;;5022848;28;20190;-76
2022/01/14 02:10:53;;;;;;;17.27;11.00;;;3.70;99.90;;;;;;5023800;28;20647;-76
2022/01/14 02:13:19;;;;;;;17.17;11.00;;;3.60;99.90;;;;;;5026079;28;20205;-76
2022/01/14 02:16:01;;;;;;;15.97;10.43;;;3.60;99.90;;;;;;5025762;28;20606;-76
2022/01/14 02:18:36;;;;;;;15.73;10.30;;;3.60;99.90;;;;;;5022485;28;20577;-76
2022/01/14 02:24:07;;;;;;;17.20;10.25;;;3.70;99.90;;;;;;5024918;28;20185;-76
2022/01/14 02:26:33;;;;;;;14.25;9.55;;;3.70;99.90;;;;;;5022888;28;20258;-75
2022/01/14 02:28:59;;;;;;;11.95;8.80;;;3.70;99.90;;;;;;5024402;28;20220;-76
2022/01/14 02:31:25;;;;;;;16.80;11.40;;;3.70;99.90;;;;;;5025672;28;20212;-76
2022/01/14 02:33:51;;;;;;;13.13;9.32;;;3.70;99.90;;;;;;5024498;28;21249;-76
2022/01/14 02:36:17;;;;;;;13.45;9.98;;;3.60;99.90;;;;;;5030664;28;20179;-76
2022/01/14 02:38:44;;;;;;;13.07;9.70;;;3.60;99.90;;;;;;5021968;28;20539;-77
2022/01/14 02:41:10;;;;;;;13.75;9.40;;;3.60;99.90;;;;;;5012928;28;20594;-76
2022/01/14 02:43:36;;;;;;;13.97;9.50;;;3.60;99.90;;;;;;5021169;28;20174;-76
2022/01/14 02:46:04;;;;;;;17.00;11.00;;;3.60;99.90;;;;;;5022668;28;20179;-76
2022/01/14 02:48:30;;;;;;;11.10;9.02;;;3.60;99.90;;;;;;5032241;28;20176;-75
2022/01/14 02:51:08;;;;;;;13.57;9.13;;;3.60;99.90;;;;;;5020518;28;20519;-75
2022/01/14 02:56:04;;;;;;;15.68;10.02;;;3.60;99.90;;;;;;5024649;28;20548;-75
2022/01/14 02:58:32;;;;;;;15.90;10.70;;;3.60;99.90;;;;;;5025392;28;20559;-76
2022/01/14 03:01:04;;;;;;;11.45;8.52;;;3.50;99.90;;;;;;5005187;28;20208;-75
2022/01/14 03:03:32;;;;;;;11.35;8.27;;;3.50;99.90;;;;;;5020509;28;20588;-75
2022/01/14 03:05:58;;;;;;;13.52;8.57;;;3.50;99.90;;;;;;5022636;28;20531;-76
2022/01/14 03:08:23;;;;;;;16.20;9.13;;;3.50;99.90;;;;;;5023950;28;20189;-76
2022/01/14 03:10:54;;;;;;;10.97;8.63;;;3.50;99.90;;;;;;5022488;28;20174;-76
2022/01/14 03:13:21;;;;;;;13.20;8.73;;;3.50;99.90;;;;;;5021604;28;20631;-75
2022/01/14 03:15:47;;;;;;;16.17;11.10;;;3.50;99.90;;;;;;5017749;28;20210;-75
2022/01/14 03:18:17;;;;;;;12.93;9.47;;;3.50;99.90;;;;;;5020461;28;20209;-75
2022/01/14 03:20:48;;;;;;;14.32;9.70;;;3.50;99.90;;;;;;5019678;28;20252;-75
2022/01/14 03:23:15;;;;;;;12.48;8.63;;;3.50;99.90;;;;;;5024939;28;20593;-75
2022/01/14 03:25:48;;;;;;;12.02;9.27;;;3.50;99.90;;;;;;5024847;28;20177;-75
2022/01/14 03:28:24;;;;;;;13.27;10.50;;;3.50;99.90;;;;;;5020131;28;20175;-75
2022/01/14 03:30:52;;;;;;;16.20;11.32;;;3.50;99.90;;;;;;5001145;28;20198;-75
2022/01/14 03:33:19;;;;;;;13.48;9.82;;;3.50;99.90;;;;;;5021318;28;20273;-75
2022/01/14 03:35:45;;;;;;;13.40;9.40;;;3.40;99.90;;;;;;5017237;28;20549;-75
2022/01/14 03:38:11;;;;;;;11.13;9.27;;;3.40;99.90;;;;;;5004055;28;20185;-75
2022/01/14 03:40:37;;;;;;;16.10;9.25;;;3.40;99.90;;;;;;5020395;28;20594;-74
2022/01/14 03:43:03;;;;;;;12.07;8.97;;;3.40;99.90;;;;;;5019326;28;20229;-75
2022/01/14 03:45:29;;;;;;;19.15;11.88;;;3.40;99.90;;;;;;5025061;28;20186;-75
2022/01/14 03:47:55;;;;;;;14.07;9.57;;;3.40;99.90;;;;;;5022709;28;20265;-75
2022/01/14 03:50:20;;;;;;;15.70;10.40;;;3.40;99.90;;;;;;5023824;28;20616;-75
2022/01/14 03:52:46;;;;;;;18.17;12.07;;;3.30;99.90;;;;;;5022345;28;20209;-75
2022/01/14 03:55:12;;;;;;;14.97;11.70;;;3.30;99.90;;;;;;5012297;28;20549;-75
2022/01/14 03:57:38;;;;;;;15.73;10.40;;;3.30;99.90;;;;;;5003251;28;20174;-75
2022/01/14 04:00:05;;;;;;;15.07;10.50;;;3.30;99.90;;;;;;5020302;28;20209;-76
2022/01/14 04:02:31;;;;;;;12.80;8.95;;;3.30;99.90;;;;;;5020683;28;20175;-76
2022/01/14 04:04:56;;;;;;;14.83;9.37;;;3.30;99.90;;;;;;5022622;28;20185;-76
2022/01/14 04:07:22;;;;;;;13.43;10.20;;;3.30;99.90;;;;;;5022993;28;20542;-75
2022/01/14 04:09:48;;;;;;;13.63;9.67;;;3.30;99.90;;;;;;5005129;28;20293;-75
2022/01/14 04:12:29;;;;;;;14.43;9.60;;;3.30;99.90;;;;;;4995782;28;20601;-75
2022/01/14 04:17:21;;;;;;;13.20;7.97;;;3.20;99.90;;;;;;5020719;28;20178;-75
2022/01/14 04:19:47;;;;;;;14.13;10.20;;;3.20;99.90;;;;;;5020108;28;20570;-75
2022/01/14 04:22:13;;;;;;;10.77;7.87;;;3.20;99.90;;;;;;5022765;28;20178;-75
2022/01/14 04:24:39;;;;;;;10.57;8.00;;;3.20;99.90;;;;;;5023752;28;20252;-75
2022/01/14 04:27:04;;;;;;;11.80;8.47;;;3.20;99.90;;;;;;5020793;28;20178;-75
2022/01/14 04:29:32;;;;;;;11.23;7.87;;;3.20;99.90;;;;;;5019952;28;20210;-75
2022/01/14 04:31:58;;;;;;;11.60;8.60;;;3.20;99.90;;;;;;5022215;28;20570;-75
2022/01/14 04:34:24;;;;;;;14.30;8.45;;;3.30;99.90;;;;;;5023555;28;20608;-75
2022/01/14 04:36:50;;;;;;;11.80;9.43;;;3.20;99.90;;;;;;5022405;28;20182;-76
2022/01/14 04:39:16;;;;;;;11.73;8.17;;;3.30;99.90;;;;;;5019907;28;20190;-75
2022/01/14 04:41:42;;;;;;;9.80;7.63;;;3.20;99.90;;;;;;5019501;28;20194;-75
2022/01/14 04:44:07;;;;;;;11.70;8.30;;;3.20;99.90;;;;;;5019930;28;20182;-76
2022/01/14 04:46:59;;;;;;;9.10;6.60;;;3.20;99.90;;;;;;5019771;28;20265;-75
2022/01/14 04:49:22;;;;;;;10.13;7.13;;;3.20;99.90;;;;;;5019417;28;20694;-75
2022/01/14 04:51:48;;;;;;;11.50;7.60;;;3.20;99.90;;;;;;5019145;28;20237;-75
2022/01/14 04:54:13;;;;;;;9.17;6.77;;;3.20;99.90;;;;;;5021973;28;20193;-75
2022/01/14 04:56:39;;;;;;;9.83;7.20;;;3.20;99.90;;;;;;5021710;28;20193;-76
2022/01/14 04:59:05;;;;;;;11.63;8.17;;;3.20;99.90;;;;;;5018429;28;21046;-76
2022/01/14 05:01:32;;;;;;;11.23;7.40;;;3.10;99.90;;;;;;5013202;28;20174;-76
2022/01/14 05:03:58;;;;;;;10.40;8.68;;;3.10;99.90;;;;;;5019663;28;20185;-76
2022/01/14 05:06:24;;;;;;;11.15;8.00;;;3.10;99.90;;;;;;5018271;28;20212;-76
2022/01/14 05:08:50;;;;;;;12.77;7.87;;;3.10;99.90;;;;;;5020609;28;20194;-76
2022/01/14 05:13:44;;;;;;;13.30;8.75;;;3.10;99.90;;;;;;5022796;28;21180;-76
2022/01/14 05:16:10;;;;;;;12.63;7.50;;;3.00;99.90;;;;;;5019745;28;20171;-76
2022/01/14 05:18:38;;;;;;;9.50;7.83;;;3.00;99.90;;;;;;5014009;28;20194;-75
2022/01/14 05:21:04;;;;;;;12.25;8.23;;;3.00;99.90;;;;;;5019407;28;20177;-76
2022/01/14 05:23:30;;;;;;;14.80;10.13;;;3.00;99.90;;;;;;5019598;28;20550;-76
2022/01/14 05:25:56;;;;;;;12.87;8.90;;;3.00;99.90;;;;;;5021501;28;20181;-76
2022/01/14 05:28:22;;;;;;;15.63;8.33;;;3.00;99.90;;;;;;5022526;28;20588;-76
2022/01/14 05:30:48;;;;;;;14.47;8.50;;;3.00;99.90;;;;;;5022548;28;20599;-75
2022/01/14 05:33:15;;;;;;;13.20;8.53;;;3.00;99.90;;;;;;5023583;28;20605;-77
2022/01/14 05:35:41;;;;;;;12.10;8.93;;;3.00;99.90;;;;;;5023331;28;20580;-76
2022/01/14 05:38:07;;;;;;;12.80;8.35;;;3.00;99.90;;;;;;5026647;28;20678;-76
2022/01/14 05:40:34;;;;;;;10.52;7.00;;;3.00;99.90;;;;;;5008430;28;20207;-76
2022/01/14 05:42:59;;;;;;;10.95;7.65;;;3.00;99.90;;;;;;5023059;28;20260;-76
2022/01/14 05:45:26;;;;;;;11.83;8.67;;;3.00;99.90;;;;;;5033311;28;20293;-76
2022/01/14 05:47:52;;;;;;;10.30;7.72;;;3.00;99.90;;;;;;5023261;28;20205;-76
2022/01/14 05:50:21;;;;;;;10.10;8.03;;;3.00;99.90;;;;;;5022675;28;20228;-75
2022/01/14 05:52:47;;;;;;;12.05;8.10;;;3.00;99.90;;;;;;5031262;28;20209;-76
2022/01/14 05:55:15;;;;;;;12.37;7.90;;;3.00;99.90;;;;;;5014662;28;20639;-76
2022/01/14 05:57:42;;;;;;;11.55;8.90;;;3.00;99.90;;;;;;5021481;28;20572;-76
2022/01/14 06:00:11;;;;;;;11.10;7.65;;;3.00;99.90;;;;;;5020959;28;20551;-76
2022/01/14 06:02:47;;;;;;;13.60;7.72;;;3.00;99.90;;;;;;5021030;28;20257;-76
2022/01/14 06:05:13;;;;;;;10.90;8.27;;;3.00;99.90;;;;;;5012533;28;20531;-76
2022/01/14 06:07:39;;;;;;;11.70;7.90;;;3.10;99.90;;;;;;5022995;28;20185;-74
2022/01/14 06:10:05;;;;;;;13.70;8.40;;;3.00;99.90;;;;;;5025329;28;20193;-74
2022/01/14 06:12:31;;;;;;;11.48;9.15;;;3.10;99.90;;;;;;5026073;28;20666;-74
2022/01/14 06:14:57;;;;;;;11.35;8.95;;;3.00;99.90;;;;;;5023817;28;20251;-74
2022/01/14 06:17:22;;;;;;;10.83;7.00;;;3.00;99.90;;;;;;5021757;28;20306;-74
2022/01/14 06:19:48;;;;;;;10.23;7.07;;;3.00;99.90;;;;;;5022708;28;20605;-75
2022/01/14 06:22:14;;;;;;;11.03;7.30;;;3.00;99.90;;;;;;5025990;28;20308;-75
2022/01/14 06:24:40;;;;;;;9.77;8.23;;;3.00;99.90;;;;;;5025817;28;20182;-75
2022/01/14 06:27:05;;;;;;;10.50;8.10;;;3.00;99.90;;;;;;5022853;28;20641;-75
2022/01/14 06:29:31;;;;;;;13.87;8.80;;;3.00;99.90;;;;;;5022305;28;20587;-76
2022/01/14 06:31:57;;;;;;;9.10;6.70;;;3.10;99.90;;;;;;5022778;28;20335;-76
2022/01/14 06:34:25;;;;;;;11.40;7.83;;;3.10;99.90;;;;;;5024231;28;20647;-77
2022/01/14 06:36:52;;;;;;;11.73;7.68;;;3.00;99.90;;;;;;4999809;28;20447;-78
2022/01/14 06:39:18;;;;;;;11.50;8.07;;;3.00;99.90;;;;;;5029069;28;20200;-77
2022/01/14 06:41:44;;;;;;;11.32;7.25;;;3.00;99.90;;;;;;5020411;28;20616;-77
2022/01/14 06:44:09;;;;;;;12.40;8.60;;;3.00;99.90;;;;;;5024484;28;20208;-77
2022/01/14 06:46:35;;;;;;;8.60;7.00;;;3.00;99.90;;;;;;5007638;28;20594;-77
2022/01/14 06:49:01;;;;;;;11.37;7.37;;;2.90;99.90;;;;;;5021645;28;20252;-77
2022/01/14 06:51:27;;;;;;;10.47;8.40;;;2.90;99.90;;;;;;5021691;28;20186;-77
2022/01/14 06:53:52;;;;;;;10.15;7.47;;;3.00;99.90;;;;;;5002170;28;20292;-77
2022/01/14 06:56:18;;;;;;;14.27;7.00;;;3.00;99.90;;;;;;5022182;28;20173;-76
2022/01/14 06:58:45;;;;;;;10.57;7.72;;;3.00;99.90;;;;;;5034150;28;20190;-77
2022/01/14 07:01:11;;;;;;;12.45;8.23;;;3.00;99.90;;;;;;5027815;28;20182;-76
2022/01/14 07:03:37;;;;;;;9.90;7.38;;;2.90;99.90;;;;;;5020501;28;20186;-76
2022/01/14 07:06:03;;;;;;;11.37;7.60;;;2.90;99.90;;;;;;5024520;28;20173;-75
2022/01/14 07:08:28;;;;;;;10.30;7.00;;;2.90;99.90;;;;;;5023923;28;20189;-75
2022/01/14 07:10:54;;;;;;;9.90;7.70;;;2.90;99.90;;;;;;5021867;28;20663;-76
2022/01/14 07:13:20;;;;;;;8.40;7.07;;;2.90;99.90;;;;;;5013866;28;20631;-76
2022/01/14 07:15:49;;;;;;;10.83;7.07;;;2.90;99.90;;;;;;5036950;28;20663;-80
2022/01/14 07:18:16;;;;;;;9.48;6.93;;;2.90;99.90;;;;;;5024822;28;20173;-80
2022/01/14 07:20:42;;;;;;;10.95;7.68;;;2.90;99.90;;;;;;5007019;28;20199;-75
2022/01/14 07:23:08;;;;;;;12.20;8.50;;;2.90;99.90;;;;;;5036393;28;20195;-75
2022/01/14 07:25:33;;;;;;;9.57;6.87;;;2.90;99.90;;;;;;5020028;28;20178;-76
2022/01/14 07:27:59;;;;;;;12.60;6.80;;;2.90;99.90;;;;;;5023531;28;20186;-81
2022/01/14 07:30:25;;;;;;;9.23;7.37;;;2.80;99.90;;;;;;5029163;28;20198;-78
2022/01/14 07:32:51;;;;;;;9.00;7.20;;;2.90;99.90;;;;;;5034110;28;20669;-78
2022/01/14 07:35:17;;;;;;;8.93;7.03;;;2.90;99.90;;;;;;5033682;28;20165;-78
2022/01/14 07:37:42;;;;;;;9.83;6.40;;;2.90;99.90;;;;;;5043038;28;20590;-79
2022/01/14 07:40:09;;;;;;;12.90;8.90;;;2.90;99.90;;;;;;5043287;28;20661;-78
2022/01/14 07:42:35;;;;;;;11.18;8.07;;;2.90;99.90;;;;;;5044539;28;20628;-77
2022/01/14 07:45:02;;;;;;;12.77;8.33;;;2.80;99.90;;;;;;5038637;28;20193;-78
2022/01/14 07:47:28;;;;;;;14.40;10.05;;;2.80;99.90;;;;;;5035084;28;20588;-79
2022/01/14 07:49:54;;;;;;;12.60;9.10;;;2.80;99.90;;;;;;5029870;28;20185;-78
2022/01/14 07:52:19;;;;;;;12.13;8.97;;;2.70;99.90;;;;;;5018164;28;20182;-78
2022/01/14 07:54:46;;;;;;;10.60;8.23;;;2.70;99.90;;;;;;5031380;28;20510;-77
2022/01/14 07:57:12;;;;;;;10.20;7.60;;;2.70;99.90;;;;;;5025139;28;20173;-77
2022/01/14 07:59:38;;;;;;;11.52;7.88;;;2.70;99.90;;;;;;5025651;28;20182;-78
2022/01/14 08:02:05;;;;;;;9.05;7.47;;;2.70;99.90;;;;;;5012617;28;20175;-77
2022/01/14 08:04:34;;;;;;;10.50;7.00;;;2.70;99.90;;;;;;5029346;28;20578;-77
2022/01/14 08:07:08;;;;;;;10.25;7.05;;;2.70;99.90;;;;;;5018237;28;20776;-77
2022/01/14 08:09:41;;;;;;;7.85;6.45;;;2.80;99.90;;;;;;5032287;28;20548;-77
2022/01/14 08:12:09;;;;;;;8.55;6.43;;;2.80;99.90;;;;;;5015978;28;20237;-77
2022/01/14 08:14:35;;;;;;;13.30;9.30;;;2.90;99.90;;;;;;5032196;28;20560;-77
2022/01/14 08:17:01;;;;;;;11.93;6.47;;;2.90;99.90;;;;;;5021609;28;20179;-76
2022/01/14 08:19:32;;;;;;;10.10;8.45;;;2.90;99.90;;;;;;5011053;28;20194;-77
2022/01/14 08:22:03;;;;;;;13.30;8.20;;;2.80;99.90;;;;;;5028410;28;20185;-77
2022/01/14 08:24:29;;;;;;;8.13;5.97;;;2.80;99.90;;;;;;5018532;28;20177;-77
2022/01/14 08:26:56;;;;;;;8.18;7.25;;;2.80;99.90;;;;;;5020769;28;20181;-76
2022/01/14 08:29:23;;;;;;;11.38;7.10;;;2.90;99.90;;;;;;5025370;28;20219;-77
2022/01/14 08:31:49;;;;;;;9.85;6.70;;;2.90;99.90;;;;;;5024896;28;20240;-78
2022/01/14 08:34:15;;;;;;;8.70;6.37;;;3.00;99.90;;;;;;5031057;28;20765;-78
2022/01/14 08:36:40;;;;;;;10.67;7.37;;;3.10;99.90;;;;;;5031162;28;20591;-78
2022/01/14 08:39:06;;;;;;;9.87;8.23;;;3.20;99.90;;;;;;5056855;28;20609;-79
2022/01/14 08:41:32;;;;;;;9.33;7.60;;;3.20;99.90;;;;;;5001425;28;20623;-77
2022/01/14 08:43:59;;;;;;;8.27;6.70;;;3.30;99.90;;;;;;5023449;28;20252;-78
2022/01/14 08:46:26;;;;;;;10.55;8.25;;;3.40;99.90;;;;;;5025010;28;20189;-79
2022/01/14 08:48:52;;;;;;;9.98;8.40;;;3.40;99.90;;;;;;5030214;28;20189;-78
2022/01/14 08:51:18;;;;;;;10.43;7.95;;;3.40;99.90;;;;;;5026112;28;20240;-78
2022/01/14 08:53:44;;;;;;;12.85;7.93;;;3.40;99.90;;;;;;5015795;28;20237;-78
2022/01/14 08:56:10;;;;;;;9.30;7.40;;;3.40;99.90;;;;;;5021487;28;20204;-78
2022/01/14 08:58:35;;;;;;;9.57;7.60;;;3.40;99.90;;;;;;5029609;28;20649;-79
2022/01/14 09:01:02;;;;;;;10.83;7.80;;;3.40;99.90;;;;;;5027062;28;20174;-78
2022/01/14 09:03:27;;;;;;;10.60;7.80;;;3.50;99.90;;;;;;5028796;28;20195;-78
2022/01/14 09:05:53;;;;;;;10.73;8.70;;;3.50;99.90;;;;;;5023171;28;20186;-77
2022/01/14 09:08:19;;;;;;;11.77;7.53;;;3.60;99.90;;;;;;5017971;28;20182;-77
2022/01/14 09:10:45;;;;;;;10.20;8.20;;;3.70;99.90;;;;;;5001444;28;20178;-78
2022/01/14 09:13:11;;;;;;;11.15;7.95;;;3.70;99.90;;;;;;5022124;28;20217;-79
2022/01/14 09:15:38;;;;;;;14.85;9.25;;;3.80;99.90;;;;;;5032146;28;20170;-77
2022/01/14 09:18:04;;;;;;;13.70;8.45;;;3.80;99.90;;;;;;5013581;28;20258;-77
2022/01/14 09:20:30;;;;;;;10.32;7.95;;;3.90;99.90;;;;;;5024121;28;20190;-78
2022/01/14 09:22:57;;;;;;;11.70;9.50;;;3.90;99.90;;;;;;5020832;28;20265;-78
2022/01/14 09:25:24;;;;;;;9.82;7.68;;;4.00;99.90;;;;;;5022704;28;20333;-80
2022/01/14 09:27:51;;;;;;;13.13;8.77;;;4.00;99.90;;;;;;5028668;28;20178;-78
2022/01/14 09:30:21;;;;;;;12.40;8.85;;;4.10;99.90;;;;;;4994333;28;20236;-78
2022/01/14 09:32:48;;;;;;;12.77;8.23;;;4.20;99.90;;;;;;5034724;28;20886;-78
2022/01/14 09:35:14;;;;;;;10.27;7.93;;;4.20;99.90;;;;;;5021567;28;20178;-78
2022/01/14 09:37:42;;;;;;;9.85;7.70;;;4.30;99.90;;;;;;5021427;28;20182;-77
2022/01/14 09:40:08;;;;;;;11.15;8.07;;;4.40;99.90;;;;;;5022992;28;20208;-78
2022/01/14 09:42:34;;;;;;;11.00;8.60;;;4.50;99.90;;;;;;5015834;28;20185;-77
2022/01/14 09:45:00;;;;;;;11.77;9.20;;;4.50;99.90;;;;;;5023430;28;20185;-77
2022/01/14 09:47:26;;;;;;;11.83;9.40;;;4.60;99.90;;;;;;5028314;28;20347;-77
2022/01/14 09:49:52;;;;;;;10.60;7.97;;;4.70;99.90;;;;;;5037973;28;20612;-78
2022/01/14 09:52:18;;;;;;;13.52;8.35;;;4.70;99.90;;;;;;5047376;28;20163;-77
2022/01/14 09:54:45;;;;;;;10.93;8.80;;;4.80;99.90;;;;;;5030947;28;20217;-76
2022/01/14 09:57:14;;;;;;;13.07;8.75;;;4.90;99.90;;;;;;5036591;28;20250;-77
2022/01/14 09:59:40;;;;;;;12.75;8.43;;;5.00;99.90;;;;;;5036651;28;20186;-78
2022/01/14 10:02:06;;;;;;;12.20;9.70;;;5.00;99.90;;;;;;5012267;28;20182;-78
2022/01/14 10:04:33;;;;;;;9.63;8.13;;;5.10;99.90;;;;;;5020399;28;20272;-79
2022/01/14 10:07:01;;;;;;;8.90;7.80;;;5.20;99.90;;;;;;5033457;28;20652;-78
2022/01/14 10:09:36;;;;;;;11.48;8.45;;;5.30;99.90;;;;;;5032401;28;20225;-78
2022/01/14 10:12:18;;;;;;;11.95;9.23;;;5.40;99.90;;;;;;5004798;28;20185;-78
2022/01/14 10:14:55;;;;;;;8.75;7.20;;;5.50;99.90;;;;;;5011700;28;20670;-78
2022/01/14 10:17:22;;;;;;;11.15;8.85;;;5.50;99.90;;;;;;5025564;28;20185;-78
2022/01/14 10:19:48;;;;;;;9.25;8.18;;;5.70;99.90;;;;;;4999665;28;20561;-79
2022/01/14 10:22:21;;;;;;;10.52;8.32;;;5.80;99.90;;;;;;5029404;28;20618;-78
2022/01/14 10:25:17;;;;;;;9.88;7.82;;;5.80;99.90;;;;;;5013050;28;20790;-79
2022/01/14 10:27:50;;;;;;;10.10;8.05;;;5.90;99.90;;;;;;5024363;28;20620;-78
2022/01/14 10:30:17;;;;;;;11.05;9.75;;;6.00;99.90;;;;;;5029662;28;20618;-78
2022/01/14 10:33:00;;;;;;;12.80;9.35;;;6.10;99.90;;;;;;5025707;28;20631;-78
2022/01/14 10:35:30;;;;;;;12.20;9.40;;;6.20;99.90;;;;;;5015458;28;20166;-76
2022/01/14 10:38:00;;;;;;;13.20;9.43;;;6.30;99.90;;;;;;5037046;28;20170;-76
2022/01/14 10:40:32;;;;;;;11.80;8.60;;;6.40;99.90;;;;;;5014865;28;20199;-78
2022/01/14 10:43:04;;;;;;;13.27;9.95;;;6.40;99.90;;;;;;5024593;28;20204;-76
2022/01/14 10:45:31;;;;;;;12.15;9.48;;;6.50;99.90;;;;;;5025160;28;20166;-76
2022/01/14 10:48:03;;;;;;;12.52;11.10;;;6.60;99.90;;;;;;5044361;28;20185;-76
2022/01/14 10:50:34;;;;;;;15.30;12.43;;;6.70;99.90;;;;;;5023382;28;20216;-79
2022/01/14 10:53:02;;;;;;;15.73;11.75;;;6.80;99.90;;;;;;5014540;28;20213;-79
2022/01/14 10:55:35;;;;;;;19.25;12.30;;;6.80;99.90;;;;;;5025359;28;20832;-79
2022/01/14 10:58:03;;;;;;;17.23;13.50;;;7.00;99.90;;;;;;5025222;28;20216;-78
2022/01/14 11:00:39;;;;;;;16.70;14.18;;;7.10;99.90;;;;;;5024768;28;20201;-77
2022/01/14 11:03:05;;;;;;;20.73;15.52;;;7.20;99.90;;;;;;5020687;28;20280;-78
2022/01/14 11:05:32;;;;;;;19.33;15.70;;;7.40;99.90;;;;;;5015459;28;20628;-79
2022/01/14 11:07:57;;;;;;;20.65;16.05;;;7.50;99.90;;;;;;5021722;28;20588;-79
2022/01/14 11:10:30;;;;;;;22.33;16.00;;;7.70;99.90;;;;;;5009888;28;20186;-79
2022/01/14 11:12:57;;;;;;;21.17;17.67;;;7.80;99.90;;;;;;5027829;28;20201;-79
2022/01/14 11:15:25;;;;;;;18.13;15.63;;;8.00;99.90;;;;;;5015886;28;20221;-77
2022/01/14 11:17:55;;;;;;;20.02;15.20;;;8.20;99.90;;;;;;5039078;28;20173;-78
2022/01/14 11:20:28;;;;;;;19.27;14.23;;;8.40;99.90;;;;;;5030886;28;20201;-78
2022/01/14 11:25:46;;;;;;;21.35;14.60;;;8.50;99.90;;;;;;5040775;28;20189;-77
2022/01/14 11:28:16;;;;;;;17.45;12.85;;;8.50;99.90;;;;;;5019853;28;20178;-78
2022/01/14 11:30:42;;;;;;;18.88;13.65;;;8.50;99.90;;;;;;5034956;28;20614;-79
2022/01/14 11:33:09;;;;;;;19.13;14.33;;;8.50;99.90;;;;;;5035621;28;20280;-78
2022/01/14 11:35:37;;;;;;;20.00;15.55;;;8.50;99.90;;;;;;5042066;28;20178;-78
2022/01/14 11:38:24;;;;;;;17.70;13.23;;;8.40;99.90;;;;;;5038853;28;20642;-77
2022/01/14 11:40:51;;;;;;;18.13;14.93;;;8.40;99.90;;;;;;5038607;28;20173;-79
2022/01/14 11:44:08;;;;;;;21.77;16.73;;;8.40;99.90;;;;;;5043529;28;20177;-79
2022/01/14 11:46:37;;;;;;;15.82;14.00;;;8.30;99.90;;;;;;5019353;28;20279;-78
2022/01/14 11:49:34;;;;;;;18.38;15.35;;;8.30;99.90;;;;;;5030197;28;20385;-79
2022/01/14 11:52:04;;;;;;;21.45;15.82;;;8.30;99.90;;;;;;5023150;28;20206;-78
2022/01/14 11:54:44;;;;;;;24.30;18.73;;;8.20;99.90;;;;;;5009662;28;20669;-79
2022/01/14 11:57:31;;;;;;;29.10;17.95;;;8.20;99.90;;;;;;5032879;28;20645;-78
2022/01/14 11:59:57;;;;;;;25.30;18.17;;;8.20;99.90;;;;;;5021579;28;20206;-77
2022/01/14 12:02:28;;;;;;;25.33;17.80;;;8.10;99.90;;;;;;5013339;28;20263;-76
2022/01/14 12:05:00;;;;;;;30.00;19.30;;;8.10;99.90;;;;;;5020298;28;20212;-76
2022/01/14 12:07:26;;;;;;;25.70;17.00;;;8.10;99.90;;;;;;5013556;28;20647;-75
2022/01/14 12:10:09;;;;;;;33.53;20.50;;;8.10;99.90;;;;;;5019513;28;20193;-75
2022/01/14 12:12:35;;;;;;;28.70;19.15;;;8.10;99.90;;;;;;5014514;28;20182;-75
2022/01/14 12:15:04;;;;;;;29.55;19.92;;;8.00;99.90;;;;;;5034273;28;20206;-76
2022/01/14 12:17:39;;;;;;;34.38;19.60;;;8.00;99.90;;;;;;5018579;28;20179;-76
2022/01/14 12:20:13;;;;;;;40.83;21.58;;;8.00;99.90;;;;;;5036003;28;20669;-76
2022/01/14 12:22:40;;;;;;;31.08;19.73;;;7.90;99.90;;;;;;5021441;28;20242;-75
2022/01/14 12:25:08;;;;;;;35.05;20.23;;;7.90;99.90;;;;;;5020263;28;20265;-76
2022/01/14 12:27:44;;;;;;;35.92;21.08;;;8.00;99.90;;;;;;5019851;28;20589;-75
2022/01/14 12:30:15;;;;;;;37.33;20.45;;;8.00;99.90;;;;;;5019276;28;20943;-76
2022/01/14 12:32:43;;;;;;;33.80;18.63;;;7.90;99.90;;;;;;5028224;28;20209;-74
2022/01/14 12:35:18;;;;;;;25.38;17.05;;;8.00;99.90;;;;;;5015381;28;20174;-74
2022/01/14 12:37:49;;;;;;;28.60;17.23;;;8.00;99.90;;;;;;5026552;28;20589;-74
2022/01/14 12:40:22;;;;;;;32.13;19.35;;;8.00;99.90;;;;;;5039046;28;20185;-74
2022/01/14 12:43:10;;;;;;;37.67;19.52;;;8.00;99.90;;;;;;5036945;28;20173;-74
2022/01/14 12:46:14;;;;;;;31.05;20.08;;;8.00;99.90;;;;;;5056045;28;20600;-75
2022/01/14 12:48:51;;;;;;;29.48;18.98;;;7.90;99.90;;;;;;5028271;28;20190;-74
2022/01/14 12:51:20;;;;;;;30.85;19.92;;;8.00;99.90;;;;;;5028269;28;20175;-74
2022/01/14 12:53:47;;;;;;;35.22;21.90;;;8.00;99.90;;;;;;5030347;28;20197;-74
2022/01/14 12:56:16;;;;;;;32.83;19.15;;;7.90;99.90;;;;;;5031389;28;20184;-74
2022/01/14 12:58:59;;;;;;;37.75;23.35;;;7.90;99.90;;;;;;5030922;28;20205;-78
2022/01/14 13:01:34;;;;;;;32.33;20.70;;;7.90;99.90;;;;;;5026575;28;20639;-78
2022/01/14 13:04:08;;;;;;;38.85;22.50;;;7.90;99.90;;;;;;5019211;28;20556;-78
2022/01/14 13:07:03;;;;;;;38.60;20.80;;;7.80;99.90;;;;;;5019632;28;20186;-79
2022/01/14 13:09:35;;;;;;;30.60;20.25;;;7.80;99.90;;;;;;5008047;28;20221;-79
2022/01/14 13:12:16;;;;;;;33.45;21.58;;;7.80;99.90;;;;;;5002689;28;20284;-79
2022/01/14 13:14:47;;;;;;;27.40;18.63;;;7.80;99.90;;;;;;5019780;28;20208;-79